createdAt,value
2019-05-07T00:01:34.155Z,100431.98
2019-05-07T00:04:07.727Z,100435.88
2019-05-07T00:06:40.676Z,100432.56
2019-05-07T00:09:13.667Z,100436.70
2019-05-07T00:11:46.157Z,100430.75
2019-05-07T00:14:18.691Z,100432.52
2019-05-07T00:16:53.394Z,100431.36
2019-05-07T00:19:27.091Z,100427.39
2019-05-07T00:22:02.187Z,100426.94
2019-05-07T00:24:35.182Z,100425.85
2019-05-07T00:27:08.741Z,100419.93
2019-05-07T00:29:42.857Z,100423.13
2019-05-07T00:32:15.588Z,100421.14
2019-05-07T00:34:57.528Z,100426.34
2019-05-07T00:37:37.547Z,100416.48
2019-05-07T00:40:23.482Z,100415.94
2019-05-07T00:43:02.724Z,100420.54
2019-05-07T00:45:45.619Z,100420.66
2019-05-07T00:48:18.161Z,100422.58
2019-05-07T00:50:55.693Z,100416.29
2019-05-07T00:53:29.216Z,100418.66
2019-05-07T00:56:02.367Z,100414.27
2019-05-07T00:58:35.041Z,100414.52
2019-05-07T01:01:08.136Z,100416.69
2019-05-07T01:03:42.407Z,100417.19
2019-05-07T01:06:15.176Z,100415.45
2019-05-07T01:08:47.803Z,100411.88
2019-05-07T01:11:22.696Z,100412.33
2019-05-07T01:13:55.507Z,100412.49
2019-05-07T01:16:28.652Z,100408.39
2019-05-07T01:19:01.884Z,100404.33
2019-05-07T01:21:34.749Z,100407.30
2019-05-07T01:24:07.221Z,100407.20
2019-05-07T01:26:39.635Z,100408.67
2019-05-07T01:29:12.866Z,100411.39
2019-05-07T01:31:55.067Z,100407.41
2019-05-07T01:34:37.199Z,100407.52
2019-05-07T01:37:09.750Z,100408.62
2019-05-07T01:39:45.296Z,100410.78
2019-05-07T01:42:17.724Z,100405.52
2019-05-07T01:44:52.916Z,100410.55
2019-05-07T01:47:26.006Z,100410.40
2019-05-07T01:49:59.759Z,100402.22
2019-05-07T01:52:33.181Z,100407.02
2019-05-07T01:55:05.906Z,100406.03
2019-05-07T01:57:38.571Z,100405.31
2019-05-07T02:00:13.162Z,100409.02
2019-05-07T02:02:53.195Z,100404.37
2019-05-07T02:05:36.364Z,100406.97
2019-05-07T02:08:18.426Z,100407.52
2019-05-07T02:10:57.133Z,100404.72
2019-05-07T02:13:29.808Z,100406.08
2019-05-07T02:16:04.263Z,100401.78
2019-05-07T02:18:37.792Z,100406.14
2019-05-07T02:21:12.739Z,100404.25
2019-05-07T02:23:45.472Z,100397.81
2019-05-07T02:26:18.131Z,100402.34
2019-05-07T02:28:51.847Z,100399.08
2019-05-07T02:31:24.438Z,100401.19
2019-05-07T02:33:57.177Z,100400.66
2019-05-07T02:36:30.334Z,100398.18
2019-05-07T02:39:16.598Z,100396.59
2019-05-07T02:41:49.767Z,100393.55
2019-05-07T02:44:23.199Z,100391.36
2019-05-07T02:47:04.043Z,100393.00
2019-05-07T02:49:46.792Z,100390.45
2019-05-07T02:52:26.444Z,100393.84
2019-05-07T02:55:06.685Z,100393.33
2019-05-07T02:57:39.485Z,100395.27
2019-05-07T03:00:14.587Z,100396.48
2019-05-07T03:02:48.606Z,100392.55
2019-05-07T03:05:23.209Z,100392.34
2019-05-07T03:07:55.937Z,100390.80
2019-05-07T03:10:28.714Z,100393.83
2019-05-07T03:13:02.999Z,100391.62
2019-05-07T03:15:36.127Z,100391.83
2019-05-07T03:18:09.239Z,100400.56
2019-05-07T03:20:48.910Z,100398.78
2019-05-07T03:23:26.663Z,100396.70
2019-05-07T03:26:08.263Z,100395.80
2019-05-07T03:28:58.715Z,100393.97
2019-05-07T03:31:49.258Z,100393.74
2019-05-07T03:34:36.829Z,100396.27
2019-05-07T03:37:14.012Z,100393.01
2019-05-07T03:39:47.286Z,100395.28
2019-05-07T03:42:20.133Z,100394.22
2019-05-07T03:45:07.564Z,100388.98
2019-05-07T03:47:43.884Z,100393.88
2019-05-07T03:50:16.609Z,100394.99
2019-05-07T03:52:49.193Z,100394.54
2019-05-07T03:55:23.407Z,100390.86
2019-05-07T03:57:56.221Z,100393.38
2019-05-07T04:00:28.567Z,100389.80
2019-05-07T04:03:03.623Z,100392.70
2019-05-07T04:05:36.567Z,100390.45
2019-05-07T04:08:09.263Z,100392.20
2019-05-07T04:10:44.242Z,100393.49
2019-05-07T04:13:17.255Z,100388.98
2019-05-07T04:15:52.619Z,100392.38
2019-05-07T04:18:25.474Z,100391.56
2019-05-07T04:20:58.022Z,100391.32
2019-05-07T04:23:33.755Z,100391.72
2019-05-07T04:26:18.976Z,100391.83
2019-05-07T04:28:57.020Z,100388.41
2019-05-07T04:31:34.185Z,100392.95
2019-05-07T04:34:14.955Z,100388.18
2019-05-07T04:36:49.190Z,100388.19
2019-05-07T04:39:23.199Z,100388.13
2019-05-07T04:41:55.926Z,100385.28
2019-05-07T04:44:28.524Z,100384.09
2019-05-07T04:47:04.159Z,100378.56
2019-05-07T04:49:37.190Z,100379.45
2019-05-07T04:52:17.655Z,100378.57
2019-05-07T04:54:52.801Z,100379.35
2019-05-07T04:57:25.982Z,100378.64
2019-05-07T04:59:58.737Z,100379.09
2019-05-07T05:02:53.085Z,100379.30
2019-05-07T05:05:26.062Z,100379.48
2019-05-07T05:07:58.783Z,100378.16
2019-05-07T05:10:33.680Z,100379.48
2019-05-07T05:13:06.515Z,100380.66
2019-05-07T05:15:39.898Z,100381.59
2019-05-07T05:18:12.864Z,100378.48
2019-05-07T05:21:03.441Z,100372.55
2019-05-07T05:23:45.152Z,100374.69
2019-05-07T05:26:18.498Z,100369.82
2019-05-07T05:28:52.558Z,100378.44
2019-05-07T05:31:25.262Z,100376.47
2019-05-07T05:33:57.945Z,100376.07
2019-05-07T05:36:33.036Z,100377.09
2019-05-07T05:39:08.375Z,100379.91
2019-05-07T05:41:44.015Z,100379.42
2019-05-07T05:44:25.223Z,100379.83
2019-05-07T05:46:57.908Z,100380.61
2019-05-07T05:49:34.338Z,100379.52
2019-05-07T05:52:17.115Z,100378.41
2019-05-07T05:54:59.118Z,100377.64
2019-05-07T05:57:37.348Z,100377.17
2019-05-07T06:00:15.277Z,100378.12
2019-05-07T06:03:09.005Z,100375.75
2019-05-07T06:05:52.163Z,100374.98
2019-05-07T06:08:32.558Z,100369.42
2019-05-07T06:11:27.674Z,100373.25
2019-05-07T06:14:06.730Z,100376.02
2019-05-07T06:16:53.478Z,100366.11
2019-05-07T06:19:46.804Z,100372.14
2019-05-07T06:22:37.544Z,100370.94
2019-05-07T06:25:15.392Z,100375.39
2019-05-07T06:27:49.884Z,100371.02
2019-05-07T06:30:24.083Z,100372.84
2019-05-07T06:32:57.323Z,100380.81
2019-05-07T06:35:33.408Z,100378.08
2019-05-07T06:38:08.293Z,100382.20
2019-05-07T06:40:52.295Z,100379.73
2019-05-07T06:43:46.663Z,100377.43
2019-05-07T06:46:20.443Z,100376.98
2019-05-07T06:48:52.896Z,100379.37
2019-05-07T06:51:25.543Z,100380.03
2019-05-07T06:53:58.714Z,100376.45
2019-05-07T06:56:32.708Z,100379.39
2019-05-07T06:59:15.161Z,100381.00
2019-05-07T07:01:54.156Z,100372.51
2019-05-07T07:04:33.893Z,100374.88
2019-05-07T07:07:26.668Z,100375.84
2019-05-07T07:10:15.826Z,100376.94
2019-05-07T07:12:48.364Z,100371.48
2019-05-07T07:15:23.169Z,100369.63
2019-05-07T07:17:56.647Z,100367.42
2019-05-07T07:20:32.450Z,100366.33
2019-05-07T07:23:05.280Z,100363.20
2019-05-07T07:25:37.851Z,100359.03
2019-05-07T07:28:12.301Z,100361.16
2019-05-07T07:31:02.795Z,100360.50
2019-05-07T07:33:38.964Z,100357.14
2019-05-07T07:36:22.521Z,100353.11
2019-05-07T07:38:57.265Z,100350.19
2019-05-07T07:41:41.939Z,100348.39
2019-05-07T07:44:14.795Z,100349.06
2019-05-07T07:46:48.258Z,100351.86
2019-05-07T07:49:22.259Z,100347.88
2019-05-07T07:51:55.226Z,100343.11
2019-05-07T07:54:27.803Z,100344.17
2019-05-07T07:57:16.365Z,100339.88
2019-05-07T08:00:04.190Z,100345.59
2019-05-07T08:02:42.280Z,100345.56
2019-05-07T08:05:15.189Z,100342.73
2019-05-07T08:07:47.773Z,100347.00
2019-05-07T08:10:22.143Z,100341.42
2019-05-07T08:12:56.420Z,100341.72
2019-05-07T08:15:29.023Z,100340.47
2019-05-07T08:18:02.858Z,100337.11
2019-05-07T08:20:36.032Z,100342.12
2019-05-07T08:23:12.055Z,100340.41
2019-05-07T08:25:48.332Z,100340.97
2019-05-07T08:28:23.193Z,100340.97
2019-05-07T08:31:15.178Z,100337.28
2019-05-07T08:33:55.244Z,100334.33
2019-05-07T08:36:27.899Z,100331.23
2019-05-07T08:39:02.576Z,100327.49
2019-05-07T08:41:36.340Z,100320.26
2019-05-07T08:44:16.679Z,100333.34
2019-05-07T08:47:07.304Z,100320.25
2019-05-07T08:49:43.308Z,100319.38
2019-05-07T08:52:16.503Z,100316.33
2019-05-07T08:54:49.101Z,100314.28
2019-05-07T08:57:22.776Z,100308.31
2019-05-07T09:00:01.701Z,100310.02
2019-05-07T09:02:37.087Z,100304.83
2019-05-07T09:05:11.814Z,100304.66
2019-05-07T09:07:44.946Z,100304.55
2019-05-07T09:10:18.404Z,100303.95
2019-05-07T09:12:52.724Z,100299.92
2019-05-07T09:15:25.973Z,100297.13
2019-05-07T09:17:59.338Z,100296.30
2019-05-07T09:20:32.568Z,100295.92
2019-05-07T09:23:05.879Z,100295.59
2019-05-07T09:25:47.705Z,100293.80
2019-05-07T09:28:22.290Z,100288.21
2019-05-07T09:31:02.800Z,100287.63
2019-05-07T09:33:39.518Z,100288.50
2019-05-07T09:36:22.811Z,100288.67
2019-05-07T09:38:59.310Z,100283.34
2019-05-07T09:41:33.146Z,100286.55
2019-05-07T09:44:05.628Z,100282.69
2019-05-07T09:46:39.094Z,100291.98
2019-05-07T09:49:12.061Z,100283.83
2019-05-07T09:51:45.879Z,100286.12
2019-05-07T09:54:19.395Z,100286.52
2019-05-07T09:56:52.606Z,100286.34
2019-05-07T09:59:35.868Z,100283.17
2019-05-07T10:02:09.387Z,100287.57
2019-05-07T10:04:42.156Z,100287.81
2019-05-07T10:07:16.427Z,100281.03
2019-05-07T10:09:49.151Z,100280.10
2019-05-07T10:12:37.361Z,100281.50
2019-05-07T10:15:13.235Z,100279.73
2019-05-07T10:17:53.509Z,100274.14
2019-05-07T10:20:26.077Z,100276.12
2019-05-07T10:22:58.728Z,100273.30
2019-05-07T10:25:39.377Z,100264.36
2019-05-07T10:28:12.617Z,100270.17
2019-05-07T10:30:45.747Z,100271.42
2019-05-07T10:33:22.694Z,100270.17
2019-05-07T10:35:56.250Z,100267.73
2019-05-07T10:38:29.127Z,100267.00
2019-05-07T10:41:05.776Z,100263.52
2019-05-07T10:43:47.224Z,100268.42
2019-05-07T10:46:34.931Z,100264.89
2019-05-07T10:49:14.407Z,100259.73
2019-05-07T10:51:48.920Z,100255.78
2019-05-07T10:54:22.813Z,100256.33
2019-05-07T10:56:55.409Z,100251.29
2019-05-07T10:59:29.174Z,100254.81
2019-05-07T11:02:12.702Z,100242.25
2019-05-07T11:04:45.935Z,100244.61
2019-05-07T11:07:22.220Z,100247.30
2019-05-07T11:09:56.723Z,100245.43
2019-05-07T11:12:31.909Z,100238.67
2019-05-07T11:15:08.157Z,100241.47
2019-05-07T11:17:58.228Z,100237.95
2019-05-07T11:20:32.132Z,100237.08
2019-05-07T11:23:04.692Z,100231.38
2019-05-07T11:25:39.339Z,100226.81
2019-05-07T11:28:13.077Z,100226.34
2019-05-07T11:30:47.996Z,100223.34
2019-05-07T11:33:32.590Z,100217.73
2019-05-07T11:36:05.388Z,100211.22
2019-05-07T11:38:41.802Z,100212.27
2019-05-07T11:41:32.674Z,100207.65
2019-05-07T11:44:12.415Z,100205.95
2019-05-07T11:47:06.951Z,100206.33
2019-05-07T11:50:15.753Z,100197.65
2019-05-07T11:52:56.521Z,100194.34
2019-05-07T11:55:30.915Z,100194.31
2019-05-07T11:58:03.584Z,100183.80
2019-05-07T12:00:43.507Z,100190.05
2019-05-07T12:03:16.580Z,100192.78
2019-05-07T12:05:52.652Z,100186.58
2019-05-07T12:08:37.244Z,100190.75
2019-05-07T12:11:14.642Z,100185.38
2019-05-07T12:13:49.385Z,100186.44
2019-05-07T12:16:22.351Z,100182.84
2019-05-07T12:18:56.320Z,100176.83
2019-05-07T12:21:30.160Z,100171.19
2019-05-07T12:24:03.629Z,100164.53
2019-05-07T12:26:41.738Z,100167.13
2019-05-07T12:29:15.199Z,100168.39
2019-05-07T12:31:55.679Z,100162.46
2019-05-07T12:34:36.389Z,100161.73
2019-05-07T12:37:12.104Z,100162.88
2019-05-07T12:39:45.229Z,100154.20
2019-05-07T12:42:18.357Z,100154.57
2019-05-07T12:45:07.429Z,100145.84
2019-05-07T12:47:42.142Z,100138.59
2019-05-07T12:50:16.635Z,100139.09
2019-05-07T12:52:56.880Z,100139.69
2019-05-07T12:55:45.077Z,100139.42
2019-05-07T12:58:21.778Z,100133.75
2019-05-07T13:01:14.167Z,100123.97
2019-05-07T13:03:59.060Z,100127.52
2019-05-07T13:06:40.654Z,100122.20
2019-05-07T13:09:14.795Z,100122.84
2019-05-07T13:11:49.674Z,100119.47
2019-05-07T13:14:31.378Z,100119.18
2019-05-07T13:17:05.910Z,100112.39
2019-05-07T13:19:41.864Z,100113.70
2019-05-07T13:22:14.735Z,100111.56
2019-05-07T13:24:48.973Z,100107.40
2019-05-07T13:27:22.396Z,100107.11
2019-05-07T13:29:57.689Z,100109.00
2019-05-07T13:32:31.997Z,100099.64
2019-05-07T13:35:08.183Z,100098.70
2019-05-07T13:37:46.882Z,100089.41
2019-05-07T13:40:31.561Z,100088.13
2019-05-07T13:43:23.123Z,100077.65
2019-05-07T13:46:02.539Z,100077.90
2019-05-07T13:48:38.246Z,100079.70
2019-05-07T13:51:12.324Z,100070.80
2019-05-07T13:53:46.879Z,100073.48
2019-05-07T13:56:19.649Z,100067.97
2019-05-07T13:58:52.995Z,100069.23
2019-05-07T14:01:41.139Z,100062.24
2019-05-07T14:04:13.863Z,100064.22
2019-05-07T14:06:49.119Z,100063.39
2019-05-07T14:09:27.015Z,100060.53
2019-05-07T14:12:02.033Z,100056.21
2019-05-07T14:14:37.229Z,100053.45
2019-05-07T14:17:15.611Z,100062.75
2019-05-07T14:19:52.870Z,100057.68
2019-05-07T14:22:26.389Z,100057.16
2019-05-07T14:25:00.929Z,100055.16
2019-05-07T14:27:37.191Z,100048.84
2019-05-07T14:30:13.353Z,100046.12
2019-05-07T14:32:55.571Z,100044.87
2019-05-07T14:35:40.754Z,100049.85
2019-05-07T14:38:27.565Z,100044.41
2019-05-07T14:41:02.656Z,100041.76
2019-05-07T14:43:52.362Z,100035.32
2019-05-07T14:46:25.087Z,100041.06
2019-05-07T14:48:57.648Z,100035.20
2019-05-07T14:51:32.661Z,100030.41
2019-05-07T14:54:06.400Z,100030.23
2019-05-07T14:56:38.952Z,100025.97
2019-05-07T14:59:12.989Z,100024.49
2019-05-07T15:01:49.409Z,100025.17
2019-05-07T15:04:22.208Z,100024.80
2019-05-07T15:06:54.904Z,100021.41
2019-05-07T15:09:28.435Z,100012.70
2019-05-07T15:12:02.283Z,100022.02
2019-05-07T15:14:34.901Z,100011.70
2019-05-07T15:17:29.585Z,100010.44
2019-05-07T15:20:03.379Z,100004.32
2019-05-07T15:22:53.218Z,100004.41
2019-05-07T15:25:26.918Z,100000.67
2019-05-07T15:28:01.630Z,99998.38
2019-05-07T15:30:47.922Z,99992.52
2019-05-07T15:33:21.795Z,99987.00
2019-05-07T15:35:55.147Z,99984.48
2019-05-07T15:38:28.303Z,99979.80
2019-05-07T15:41:02.201Z,99979.50
2019-05-07T15:43:35.344Z,99974.64
2019-05-07T15:46:23.571Z,99978.42
2019-05-07T15:48:56.057Z,99976.73
2019-05-07T15:51:29.272Z,99967.05
2019-05-07T15:54:04.842Z,99961.33
2019-05-07T15:56:41.678Z,99954.98
2019-05-07T15:59:22.489Z,99951.77
2019-05-07T16:02:18.640Z,99955.53
2019-05-07T16:04:57.219Z,99947.89
2019-05-07T16:07:37.471Z,99949.23
2019-05-07T16:10:15.452Z,99947.77
2019-05-07T16:12:53.758Z,99946.16
2019-05-07T16:15:33.284Z,99939.37
2019-05-07T16:18:17.625Z,99936.69
2019-05-07T16:20:54.764Z,99936.53
2019-05-07T16:23:32.793Z,99933.08
2019-05-07T16:26:12.917Z,99932.98
2019-05-07T16:28:46.114Z,99933.10
2019-05-07T16:31:18.841Z,99930.14
2019-05-07T16:33:52.163Z,99930.14
2019-05-07T16:36:24.926Z,99923.99
2019-05-07T16:38:59.326Z,99923.47
2019-05-07T16:41:32.127Z,99917.30
2019-05-07T16:44:06.535Z,99917.84
2019-05-07T16:46:42.121Z,99914.70
2019-05-07T16:49:16.659Z,99912.69
2019-05-07T16:51:52.494Z,99915.98
2019-05-07T16:54:29.544Z,99908.55
2019-05-07T16:57:07.547Z,99901.94
2019-05-07T16:59:44.980Z,99901.12
2019-05-07T17:02:25.413Z,99904.70
2019-05-07T17:05:05.212Z,99898.27
2019-05-07T17:07:49.145Z,99897.05
2019-05-07T17:10:23.273Z,99903.38
2019-05-07T17:13:02.925Z,99895.52
2019-05-07T17:15:45.385Z,99896.81
2019-05-07T17:18:17.972Z,99897.17
2019-05-07T17:20:53.497Z,99899.39
2019-05-07T17:23:39.802Z,99902.36
2019-05-07T17:26:16.876Z,99896.25
2019-05-07T17:28:53.794Z,99897.03
2019-05-07T17:31:28.314Z,99893.59
2019-05-07T17:34:04.386Z,99892.08
2019-05-07T17:36:37.847Z,99890.63
2019-05-07T17:39:12.739Z,99892.00
2019-05-07T17:41:46.316Z,99889.48
2019-05-07T17:44:20.029Z,99888.87
2019-05-07T17:47:06.094Z,99888.41
2019-05-07T17:49:39.381Z,99886.37
2019-05-07T17:52:12.939Z,99883.00
2019-05-07T17:54:46.907Z,99888.03
2019-05-07T17:57:23.564Z,99885.17
2019-05-07T17:59:56.110Z,99878.49
2019-05-07T18:02:48.757Z,99876.67
2019-05-07T18:05:21.321Z,99875.33
2019-05-07T18:07:57.028Z,99874.73
2019-05-07T18:10:31.748Z,99872.27
2019-05-07T18:13:08.168Z,99872.57
2019-05-07T18:15:42.821Z,99869.47
2019-05-07T18:18:16.967Z,99869.03
2019-05-07T18:20:52.538Z,99868.02
2019-05-07T18:23:28.268Z,99870.20
2019-05-07T18:26:01.802Z,99867.51
2019-05-07T18:28:36.035Z,99866.47
2019-05-07T18:31:12.237Z,99865.23
2019-05-07T18:33:52.427Z,99865.34
2019-05-07T18:36:27.564Z,99864.83
2019-05-07T18:39:03.044Z,99865.79
2019-05-07T18:41:36.218Z,99869.12
2019-05-07T18:44:12.700Z,99863.20
2019-05-07T18:46:52.693Z,99862.25
2019-05-07T18:49:27.419Z,99858.14
2019-05-07T18:51:59.976Z,99860.83
2019-05-07T18:54:32.674Z,99855.41
2019-05-07T18:57:05.482Z,99855.50
2019-05-07T18:59:39.125Z,99849.80
2019-05-07T19:02:15.415Z,99852.09
2019-05-07T19:04:48.228Z,99845.91
2019-05-07T19:07:22.820Z,99850.89
2019-05-07T19:09:55.825Z,99851.04
2019-05-07T19:12:34.208Z,99858.59
2019-05-07T19:15:16.078Z,99857.61
2019-05-07T19:17:48.882Z,99854.45
2019-05-07T19:20:22.544Z,99856.66
2019-05-07T19:22:55.931Z,99862.14
2019-05-07T19:25:29.652Z,99866.08
2019-05-07T19:28:05.351Z,99862.28
2019-05-07T19:30:38.394Z,99860.79
2019-05-07T19:33:12.476Z,99859.12
2019-05-07T19:35:48.520Z,99855.36
2019-05-07T19:38:21.293Z,99855.19
2019-05-07T19:40:55.511Z,99851.41
2019-05-07T19:43:36.112Z,99852.38
2019-05-07T19:46:12.112Z,99850.33
2019-05-07T19:48:52.106Z,99847.28
2019-05-07T19:51:26.220Z,99851.16
2019-05-07T19:54:02.317Z,99844.52
2019-05-07T19:56:36.018Z,99840.81
2019-05-07T19:59:08.504Z,99845.25
2019-05-07T20:01:48.849Z,99845.53
2019-05-07T20:04:22.369Z,99846.81
2019-05-07T20:06:59.268Z,99847.89
2019-05-07T20:09:37.719Z,99850.03
2019-05-07T20:12:11.227Z,99851.31
2019-05-07T20:14:44.421Z,99847.35
2019-05-07T20:17:23.360Z,99847.05
2019-05-07T20:19:56.924Z,99842.86
2019-05-07T20:22:33.208Z,99837.31
2019-05-07T20:25:16.372Z,99841.48
2019-05-07T20:27:52.731Z,99839.47
2019-05-07T20:30:26.359Z,99832.41
2019-05-07T20:32:58.972Z,99825.51
2019-05-07T20:35:32.893Z,99821.51
2019-05-07T20:38:09.195Z,99814.56
2019-05-07T20:40:42.630Z,99810.55
2019-05-07T20:43:23.587Z,99808.19
2019-05-07T20:46:02.573Z,99798.17
2019-05-07T20:48:36.130Z,99797.73
2019-05-07T20:51:12.202Z,99790.03
2019-05-07T20:53:52.253Z,99783.86
2019-05-07T20:56:32.106Z,99784.67
2019-05-07T20:59:06.985Z,99773.59
2019-05-07T21:01:42.450Z,99771.09
2019-05-07T21:04:15.793Z,99765.91
2019-05-07T21:06:52.529Z,99766.47
2019-05-07T21:09:26.337Z,99766.33
2019-05-07T21:11:59.141Z,99759.45
2019-05-07T21:14:32.469Z,99757.51
2019-05-07T21:17:05.294Z,99755.73
2019-05-07T21:19:38.578Z,99752.61
2019-05-07T21:22:13.149Z,99748.11
2019-05-07T21:24:47.057Z,99748.38
2019-05-07T21:27:20.837Z,99748.75
2019-05-07T21:29:56.697Z,99749.47
2019-05-07T21:32:32.544Z,99742.99
2019-05-07T21:35:07.254Z,99749.89
2019-05-07T21:37:41.801Z,99750.30
2019-05-07T21:40:15.725Z,99748.26
2019-05-07T21:42:49.051Z,99743.73
2019-05-07T21:45:23.582Z,99741.11
2019-05-07T21:47:57.887Z,99738.33
2019-05-07T21:50:33.273Z,99729.72
2019-05-07T21:53:17.956Z,99727.52
2019-05-07T21:56:13.876Z,99724.27
2019-05-07T21:59:04.762Z,99718.16
2019-05-07T22:01:43.689Z,99718.34
2019-05-07T22:04:17.465Z,99717.11
2019-05-07T22:06:52.445Z,99711.81
2019-05-07T22:09:25.719Z,99710.04
2019-05-07T22:12:00.090Z,99707.31
2019-05-07T22:14:34.101Z,99707.88
2019-05-07T22:17:06.846Z,99705.41
2019-05-07T22:19:40.118Z,99706.97
2019-05-07T22:22:12.748Z,99698.91
2019-05-07T22:24:49.364Z,99702.45
2019-05-07T22:27:22.263Z,99697.06
2019-05-07T22:29:55.938Z,99697.23
2019-05-07T22:32:48.479Z,99686.10
2019-05-07T22:35:25.602Z,99677.53
2019-05-07T22:37:58.893Z,99667.83
2019-05-07T22:40:32.628Z,99668.33
2019-05-07T22:43:06.625Z,99666.17
2019-05-07T22:45:39.953Z,99664.95
2019-05-07T22:48:12.687Z,99653.98
2019-05-07T22:50:46.515Z,99648.74
2019-05-07T22:53:19.165Z,99646.31
2019-05-07T22:55:52.585Z,99645.65
2019-05-07T22:58:32.639Z,99643.69
2019-05-07T23:01:08.190Z,99635.34
2019-05-07T23:03:42.974Z,99630.66
2019-05-07T23:06:15.748Z,99628.56
2019-05-07T23:08:48.544Z,99623.52
2019-05-07T23:11:22.973Z,99617.73
2019-05-07T23:13:56.916Z,99615.49
2019-05-07T23:16:32.461Z,99613.77
2019-05-07T23:19:05.331Z,99610.19
2019-05-07T23:21:37.942Z,99604.01
2019-05-07T23:24:10.558Z,99602.64
2019-05-07T23:26:50.340Z,99595.22
2019-05-07T23:29:25.455Z,99589.02
2019-05-07T23:31:58.102Z,99584.32
2019-05-07T23:34:39.294Z,99583.75
2019-05-07T23:37:13.324Z,99575.24
2019-05-07T23:39:51.844Z,99570.92
2019-05-07T23:42:30.317Z,99562.94
2019-05-07T23:45:04.664Z,99558.85
2019-05-07T23:47:44.487Z,99558.81
2019-05-07T23:50:21.530Z,99554.52
2019-05-07T23:52:54.749Z,99550.03
2019-05-07T23:55:29.328Z,99546.84
2019-05-07T23:58:03.101Z,99540.62
